ENTC

Tromsø Airport

Tromsø, Norway
METAR ENTC 191250Z 26006KT 9999 -RA FEW006 SCT011 BKN017 07/04 Q1012 TEMPO BKN014 RMK WIND 2600FT 28008KT
Observed Flight Rules
Oct-19 @ 12:50 UTC (31 minutes ago) Marginal Visual Flight Rules
Wind Visibility Clouds Conditions
260° at 6 knots 10,000+ meters
  • Few at 600' AGL
  • Scattered at 1,100' AGL
  • Broken at 1,700' AGL
  • Light Rain
Temperatures Readings
Current 7°C / 45°F
Dewpoint 4°C / 39°F
Humidity 81%
Altimeter 29.88" Hg
Pressure 1012 hPa
Elevation 10
METAR ENTC 191250Z 26006KT 9999 -RA FEW006 SCT011 BKN017 07/04 Q1012 TEMPO BKN014 RMK WIND 2600FT 28008KT
Observed Flight Rules
Oct-19 @ 12:50 UTC
(31 minutes ago)
MVFR
Wind Visibility
260° at 6 knots 10,000+ meters
Clouds
  • Few at 600' AGL
  • Scattered at 1,100' AGL
  • Broken at 1,700' AGL
Conditions
  • Light Rain
Temperature Dewpoint
7°C / 45°F 4°C / 39°F
Humidity Altimeter Pressure
81% 29.88" Hg 1012 hPa